sensor_id;sensor_type;location;lat;lon;timestamp;P1;durP1;ratioP1;P2;durP2;ratioP2
26582;SDS011;14230;45.382;10.998;2022-10-04T00:01:43;20.55;;;12.73;;
26582;SDS011;14230;45.382;10.998;2022-10-04T00:04:24;19.42;;;12.55;;
26582;SDS011;14230;45.382;10.998;2022-10-04T00:09:56;18.95;;;12.88;;
26582;SDS011;14230;45.382;10.998;2022-10-04T00:12:39;19.50;;;12.63;;
26582;SDS011;14230;45.382;10.998;2022-10-04T00:24:19;16.15;;;12.60;;
26582;SDS011;14230;45.382;10.998;2022-10-04T00:30:33;16.95;;;11.88;;
26582;SDS011;14230;45.382;10.998;2022-10-04T00:33:09;24.77;;;12.82;;
26582;SDS011;14230;45.382;10.998;2022-10-04T00:38:25;16.92;;;12.02;;
26582;SDS011;14230;45.382;10.998;2022-10-04T00:41:07;20.05;;;13.70;;
26582;SDS011;14230;45.382;10.998;2022-10-04T00:43:45;17.13;;;12.38;;
26582;SDS011;14230;45.382;10.998;2022-10-04T01:01:28;20.17;;;12.70;;
26582;SDS011;14230;45.382;10.998;2022-10-04T01:04:50;14.93;;;12.02;;
26582;SDS011;14230;45.382;10.998;2022-10-04T01:07:52;16.52;;;12.73;;
26582;SDS011;14230;45.382;10.998;2022-10-04T01:16:42;18.67;;;12.18;;
26582;SDS011;14230;45.382;10.998;2022-10-04T01:22:39;14.52;;;11.40;;
26582;SDS011;14230;45.382;10.998;2022-10-04T01:25:59;16.88;;;12.65;;
26582;SDS011;14230;45.382;10.998;2022-10-04T01:28:39;16.10;;;12.27;;
26582;SDS011;14230;45.382;10.998;2022-10-04T01:31:19;18.63;;;13.05;;
26582;SDS011;14230;45.382;10.998;2022-10-04T01:34:00;17.70;;;11.98;;
26582;SDS011;14230;45.382;10.998;2022-10-04T01:36:32;17.88;;;11.70;;
26582;SDS011;14230;45.382;10.998;2022-10-04T01:39:42;17.35;;;11.40;;
26582;SDS011;14230;45.382;10.998;2022-10-04T01:42:30;17.92;;;10.98;;
26582;SDS011;14230;45.382;10.998;2022-10-04T01:48:22;17.52;;;12.10;;
26582;SDS011;14230;45.382;10.998;2022-10-04T01:51:04;16.73;;;12.73;;
26582;SDS011;14230;45.382;10.998;2022-10-04T01:53:55;15.95;;;11.80;;
26582;SDS011;14230;45.382;10.998;2022-10-04T01:57:10;17.58;;;12.60;;
26582;SDS011;14230;45.382;10.998;2022-10-04T02:00:17;18.45;;;12.13;;
26582;SDS011;14230;45.382;10.998;2022-10-04T02:06:25;16.83;;;12.43;;
26582;SDS011;14230;45.382;10.998;2022-10-04T02:09:01;18.65;;;13.20;;
26582;SDS011;14230;45.382;10.998;2022-10-04T02:12:28;21.00;;;12.73;;
26582;SDS011;14230;45.382;10.998;2022-10-04T02:15:05;17.75;;;13.52;;
26582;SDS011;14230;45.382;10.998;2022-10-04T02:21:00;16.98;;;12.85;;
26582;SDS011;14230;45.382;10.998;2022-10-04T02:23:47;15.48;;;12.93;;
26582;SDS011;14230;45.382;10.998;2022-10-04T02:26:24;17.98;;;12.43;;
26582;SDS011;14230;45.382;10.998;2022-10-04T02:29:18;17.65;;;13.65;;
26582;SDS011;14230;45.382;10.998;2022-10-04T02:31:58;17.98;;;13.27;;
26582;SDS011;14230;45.382;10.998;2022-10-04T02:34:56;18.80;;;13.32;;
26582;SDS011;14230;45.382;10.998;2022-10-04T02:37:53;20.55;;;14.27;;
26582;SDS011;14230;45.382;10.998;2022-10-04T02:41:09;24.98;;;15.05;;
26582;SDS011;14230;45.382;10.998;2022-10-04T02:43:56;23.08;;;15.05;;
26582;SDS011;14230;45.382;10.998;2022-10-04T02:47:41;22.83;;;14.75;;
26582;SDS011;14230;45.382;10.998;2022-10-04T02:49:59;23.13;;;14.47;;
26582;SDS011;14230;45.382;10.998;2022-10-04T02:55:23;21.95;;;15.10;;
26582;SDS011;14230;45.382;10.998;2022-10-04T02:57:59;26.27;;;15.45;;
26582;SDS011;14230;45.382;10.998;2022-10-04T03:03:14;20.65;;;14.57;;
26582;SDS011;14230;45.382;10.998;2022-10-04T03:05:43;21.75;;;15.05;;
26582;SDS011;14230;45.382;10.998;2022-10-04T03:10:56;21.38;;;15.80;;
26582;SDS011;14230;45.382;10.998;2022-10-04T03:13:27;24.77;;;17.42;;
26582;SDS011;14230;45.382;10.998;2022-10-04T03:16:08;24.05;;;17.55;;
26582;SDS011;14230;45.382;10.998;2022-10-04T03:19:00;26.40;;;17.08;;
26582;SDS011;14230;45.382;10.998;2022-10-04T03:22:03;23.45;;;17.85;;
26582;SDS011;14230;45.382;10.998;2022-10-04T03:24:50;25.48;;;17.33;;
26582;SDS011;14230;45.382;10.998;2022-10-04T03:27:33;23.17;;;17.15;;
26582;SDS011;14230;45.382;10.998;2022-10-04T03:30:04;21.77;;;17.40;;
26582;SDS011;14230;45.382;10.998;2022-10-04T03:32:55;25.58;;;17.75;;
26582;SDS011;14230;45.382;10.998;2022-10-04T03:38:09;23.15;;;16.85;;
26582;SDS011;14230;45.382;10.998;2022-10-04T03:40:49;22.38;;;17.05;;
26582;SDS011;14230;45.382;10.998;2022-10-04T03:43:36;23.48;;;17.55;;
26582;SDS011;14230;45.382;10.998;2022-10-04T03:46:37;28.08;;;18.33;;
26582;SDS011;14230;45.382;10.998;2022-10-04T03:49:13;27.05;;;17.17;;
26582;SDS011;14230;45.382;10.998;2022-10-04T03:52:06;29.50;;;17.75;;
26582;SDS011;14230;45.382;10.998;2022-10-04T03:55:06;20.67;;;17.33;;
26582;SDS011;14230;45.382;10.998;2022-10-04T03:57:43;21.85;;;16.77;;
26582;SDS011;14230;45.382;10.998;2022-10-04T04:00:14;29.77;;;19.50;;
26582;SDS011;14230;45.382;10.998;2022-10-04T04:02:51;33.38;;;19.90;;
26582;SDS011;14230;45.382;10.998;2022-10-04T04:05:46;28.13;;;18.55;;
26582;SDS011;14230;45.382;10.998;2022-10-04T04:08:36;27.10;;;17.92;;
26582;SDS011;14230;45.382;10.998;2022-10-04T04:11:12;24.60;;;17.38;;
26582;SDS011;14230;45.382;10.998;2022-10-04T04:13:58;22.65;;;16.92;;
26582;SDS011;14230;45.382;10.998;2022-10-04T04:16:35;27.50;;;19.13;;
26582;SDS011;14230;45.382;10.998;2022-10-04T04:19:08;27.05;;;19.08;;
26582;SDS011;14230;45.382;10.998;2022-10-04T04:21:39;26.70;;;18.65;;
26582;SDS011;14230;45.382;10.998;2022-10-04T04:24:15;30.50;;;20.10;;
26582;SDS011;14230;45.382;10.998;2022-10-04T04:29:37;23.58;;;18.15;;
26582;SDS011;14230;45.382;10.998;2022-10-04T04:32:22;28.63;;;18.08;;
26582;SDS011;14230;45.382;10.998;2022-10-04T04:35:00;25.13;;;17.50;;
26582;SDS011;14230;45.382;10.998;2022-10-04T04:40:22;31.80;;;18.58;;
26582;SDS011;14230;45.382;10.998;2022-10-04T04:42:51;27.42;;;18.60;;
26582;SDS011;14230;45.382;10.998;2022-10-04T04:45:19;27.23;;;19.58;;
26582;SDS011;14230;45.382;10.998;2022-10-04T04:47:52;24.67;;;18.38;;
26582;SDS011;14230;45.382;10.998;2022-10-04T04:50:25;29.00;;;19.70;;
26582;SDS011;14230;45.382;10.998;2022-10-04T04:53:04;26.45;;;19.58;;
26582;SDS011;14230;45.382;10.998;2022-10-04T04:55:37;33.88;;;22.58;;
26582;SDS011;14230;45.382;10.998;2022-10-04T04:58:31;29.55;;;19.88;;
26582;SDS011;14230;45.382;10.998;2022-10-04T05:01:04;32.08;;;20.15;;
26582;SDS011;14230;45.382;10.998;2022-10-04T05:03:41;27.67;;;19.70;;
26582;SDS011;14230;45.382;10.998;2022-10-04T05:06:43;26.67;;;19.92;;
26582;SDS011;14230;45.382;10.998;2022-10-04T05:09:20;33.85;;;21.95;;
26582;SDS011;14230;45.382;10.998;2022-10-04T05:11:56;43.40;;;25.15;;
26582;SDS011;14230;45.382;10.998;2022-10-04T05:14:29;42.95;;;22.30;;
26582;SDS011;14230;45.382;10.998;2022-10-04T05:16:57;27.60;;;20.77;;
26582;SDS011;14230;45.382;10.998;2022-10-04T05:19:35;30.63;;;19.77;;
26582;SDS011;14230;45.382;10.998;2022-10-04T05:22:09;35.88;;;19.67;;
26582;SDS011;14230;45.382;10.998;2022-10-04T05:24:39;37.08;;;20.35;;
26582;SDS011;14230;45.382;10.998;2022-10-04T05:27:14;32.08;;;22.08;;
26582;SDS011;14230;45.382;10.998;2022-10-04T05:29:54;33.50;;;21.05;;
26582;SDS011;14230;45.382;10.998;2022-10-04T05:43:44;45.05;;;23.67;;
26582;SDS011;14230;45.382;10.998;2022-10-04T05:46:17;35.35;;;24.92;;
26582;SDS011;14230;45.382;10.998;2022-10-04T05:49:06;39.22;;;22.30;;
26582;SDS011;14230;45.382;10.998;2022-10-04T05:51:48;34.05;;;21.75;;
26582;SDS011;14230;45.382;10.998;2022-10-04T05:54:20;31.15;;;21.15;;
26582;SDS011;14230;45.382;10.998;2022-10-04T06:05:13;38.40;;;20.63;;
26582;SDS011;14230;45.382;10.998;2022-10-04T06:08:04;28.30;;;20.13;;
26582;SDS011;14230;45.382;10.998;2022-10-04T06:22:26;25.20;;;19.58;;
26582;SDS011;14230;45.382;10.998;2022-10-04T06:25:01;33.70;;;20.20;;
26582;SDS011;14230;45.382;10.998;2022-10-04T06:30:17;39.38;;;23.23;;
26582;SDS011;14230;45.382;10.998;2022-10-04T06:35:39;28.40;;;19.45;;
26582;SDS011;14230;45.382;10.998;2022-10-04T06:41:33;30.65;;;20.77;;
26582;SDS011;14230;45.382;10.998;2022-10-04T06:52:51;28.38;;;19.63;;
26582;SDS011;14230;45.382;10.998;2022-10-04T07:03:44;22.77;;;18.58;;
26582;SDS011;14230;45.382;10.998;2022-10-04T07:06:23;26.47;;;19.93;;
26582;SDS011;14230;45.382;10.998;2022-10-04T07:08:55;26.92;;;19.98;;
26582;SDS011;14230;45.382;10.998;2022-10-04T07:11:35;22.35;;;18.92;;
26582;SDS011;14230;45.382;10.998;2022-10-04T07:14:28;24.92;;;19.20;;
26582;SDS011;14230;45.382;10.998;2022-10-04T07:17:02;27.42;;;20.48;;
26582;SDS011;14230;45.382;10.998;2022-10-04T07:19:39;24.40;;;19.48;;
26582;SDS011;14230;45.382;10.998;2022-10-04T07:22:13;23.52;;;19.63;;
26582;SDS011;14230;45.382;10.998;2022-10-04T07:28:09;19.63;;;17.53;;
26582;SDS011;14230;45.382;10.998;2022-10-04T07:31:10;21.92;;;18.05;;
26582;SDS011;14230;45.382;10.998;2022-10-04T07:33:41;19.23;;;11.10;;
26582;SDS011;14230;45.382;10.998;2022-10-04T07:36:21;15.35;;;10.80;;
26582;SDS011;14230;45.382;10.998;2022-10-04T07:39:09;23.80;;;17.55;;
26582;SDS011;14230;45.382;10.998;2022-10-04T07:44:37;18.50;;;14.40;;
26582;SDS011;14230;45.382;10.998;2022-10-04T07:47:13;16.63;;;14.43;;
26582;SDS011;14230;45.382;10.998;2022-10-04T07:49:46;19.10;;;13.73;;
26582;SDS011;14230;45.382;10.998;2022-10-04T07:52:22;16.92;;;12.18;;
26582;SDS011;14230;45.382;10.998;2022-10-04T07:57:57;15.50;;;11.95;;
26582;SDS011;14230;45.382;10.998;2022-10-04T08:00:51;17.20;;;11.50;;
26582;SDS011;14230;45.382;10.998;2022-10-04T08:03:25;12.82;;;11.25;;
26582;SDS011;14230;45.382;10.998;2022-10-04T08:05:59;14.57;;;11.30;;
26582;SDS011;14230;45.382;10.998;2022-10-04T08:28:24;22.10;;;10.75;;
26582;SDS011;14230;45.382;10.998;2022-10-04T09:00:31;10.65;;;6.85;;
26582;SDS011;14230;45.382;10.998;2022-10-04T09:20:47;11.77;;;8.40;;
26582;SDS011;14230;45.382;10.998;2022-10-04T09:28:58;12.18;;;7.95;;
26582;SDS011;14230;45.382;10.998;2022-10-04T09:37:23;13.30;;;10.13;;
26582;SDS011;14230;45.382;10.998;2022-10-04T09:43:02;11.40;;;8.55;;
26582;SDS011;14230;45.382;10.998;2022-10-04T10:02:26;10.23;;;8.10;;
26582;SDS011;14230;45.382;10.998;2022-10-04T10:08:30;12.50;;;8.45;;
26582;SDS011;14230;45.382;10.998;2022-10-04T10:20:18;11.30;;;7.47;;
26582;SDS011;14230;45.382;10.998;2022-10-04T10:25:39;8.98;;;4.75;;
26582;SDS011;14230;45.382;10.998;2022-10-04T10:47:59;10.60;;;8.75;;
26582;SDS011;14230;45.382;10.998;2022-10-04T10:50:50;8.60;;;6.15;;
26582;SDS011;14230;45.382;10.998;2022-10-04T11:00:22;6.15;;;4.82;;
26582;SDS011;14230;45.382;10.998;2022-10-04T11:17:00;6.50;;;4.32;;
26582;SDS011;14230;45.382;10.998;2022-10-04T11:36:09;6.00;;;4.93;;
26582;SDS011;14230;45.382;10.998;2022-10-04T11:50:16;7.53;;;4.50;;
26582;SDS011;14230;45.382;10.998;2022-10-04T11:56:20;5.68;;;4.63;;
26582;SDS011;14230;45.382;10.998;2022-10-04T11:59:06;10.55;;;5.30;;
26582;SDS011;14230;45.382;10.998;2022-10-04T12:32:25;8.10;;;6.90;;
26582;SDS011;14230;45.382;10.998;2022-10-04T12:43:39;8.38;;;6.20;;
26582;SDS011;14230;45.382;10.998;2022-10-04T12:49:05;7.07;;;5.78;;
26582;SDS011;14230;45.382;10.998;2022-10-04T12:54:35;10.70;;;6.60;;
26582;SDS011;14230;45.382;10.998;2022-10-04T13:00:17;7.63;;;6.22;;
26582;SDS011;14230;45.382;10.998;2022-10-04T13:11:35;15.02;;;8.65;;
26582;SDS011;14230;45.382;10.998;2022-10-04T13:42:45;11.63;;;8.80;;
26582;SDS011;14230;45.382;10.998;2022-10-04T13:50:46;13.70;;;8.63;;
26582;SDS011;14230;45.382;10.998;2022-10-04T13:53:44;15.38;;;10.43;;
26582;SDS011;14230;45.382;10.998;2022-10-04T14:02:01;14.10;;;10.05;;
26582;SDS011;14230;45.382;10.998;2022-10-04T14:21:39;11.63;;;8.95;;
26582;SDS011;14230;45.382;10.998;2022-10-04T14:54:41;11.93;;;9.32;;
26582;SDS011;14230;45.382;10.998;2022-10-04T15:00:18;13.95;;;10.27;;
26582;SDS011;14230;45.382;10.998;2022-10-04T15:02:49;19.55;;;10.18;;
26582;SDS011;14230;45.382;10.998;2022-10-04T15:08:37;11.82;;;10.23;;
26582;SDS011;14230;45.382;10.998;2022-10-04T15:11:13;17.65;;;9.60;;
26582;SDS011;14230;45.382;10.998;2022-10-04T15:13:59;16.17;;;10.95;;
26582;SDS011;14230;45.382;10.998;2022-10-04T15:21:50;12.90;;;10.10;;
26582;SDS011;14230;45.382;10.998;2022-10-04T15:24:53;16.45;;;10.40;;
26582;SDS011;14230;45.382;10.998;2022-10-04T15:27:36;17.00;;;10.23;;
26582;SDS011;14230;45.382;10.998;2022-10-04T15:30:18;14.32;;;10.43;;
26582;SDS011;14230;45.382;10.998;2022-10-04T15:39:22;13.82;;;9.88;;
26582;SDS011;14230;45.382;10.998;2022-10-04T15:54:06;14.07;;;10.02;;
26582;SDS011;14230;45.382;10.998;2022-10-04T15:56:59;12.23;;;10.02;;
26582;SDS011;14230;45.382;10.998;2022-10-04T16:00:25;15.68;;;10.40;;
26582;SDS011;14230;45.382;10.998;2022-10-04T16:56:17;18.35;;;11.50;;
26582;SDS011;14230;45.382;10.998;2022-10-04T16:59:58;12.75;;;10.75;;
26582;SDS011;14230;45.382;10.998;2022-10-04T17:21:02;18.08;;;12.07;;
26582;SDS011;14230;45.382;10.998;2022-10-04T18:37:46;17.85;;;11.32;;
26582;SDS011;14230;45.382;10.998;2022-10-04T19:10:20;15.45;;;12.10;;
26582;SDS011;14230;45.382;10.998;2022-10-04T19:18:57;21.73;;;12.80;;
26582;SDS011;14230;45.382;10.998;2022-10-04T19:21:44;19.92;;;12.60;;
26582;SDS011;14230;45.382;10.998;2022-10-04T19:27:01;17.92;;;12.70;;
26582;SDS011;14230;45.382;10.998;2022-10-04T19:29:55;18.33;;;12.93;;
26582;SDS011;14230;45.382;10.998;2022-10-04T19:35:24;22.70;;;14.18;;
26582;SDS011;14230;45.382;10.998;2022-10-04T19:43:54;20.02;;;14.68;;
26582;SDS011;14230;45.382;10.998;2022-10-04T19:46:42;19.98;;;14.15;;
26582;SDS011;14230;45.382;10.998;2022-10-04T19:52:13;18.38;;;14.27;;
26582;SDS011;14230;45.382;10.998;2022-10-04T19:54:50;20.08;;;14.10;;
26582;SDS011;14230;45.382;10.998;2022-10-04T19:57:43;22.13;;;13.68;;
26582;SDS011;14230;45.382;10.998;2022-10-04T20:00:12;19.88;;;14.23;;
26582;SDS011;14230;45.382;10.998;2022-10-04T20:02:41;19.48;;;14.80;;
26582;SDS011;14230;45.382;10.998;2022-10-04T20:05:16;19.67;;;15.30;;
26582;SDS011;14230;45.382;10.998;2022-10-04T20:07:54;19.58;;;14.60;;
26582;SDS011;14230;45.382;10.998;2022-10-04T20:10:27;22.35;;;16.08;;
26582;SDS011;14230;45.382;10.998;2022-10-04T20:13:12;21.48;;;14.05;;
26582;SDS011;14230;45.382;10.998;2022-10-04T20:21:03;22.08;;;15.85;;
26582;SDS011;14230;45.382;10.998;2022-10-04T20:26:05;21.98;;;15.25;;
26582;SDS011;14230;45.382;10.998;2022-10-04T20:42:03;19.85;;;14.73;;
26582;SDS011;14230;45.382;10.998;2022-10-04T20:44:45;20.52;;;15.15;;
26582;SDS011;14230;45.382;10.998;2022-10-04T20:49:50;20.90;;;14.65;;
26582;SDS011;14230;45.382;10.998;2022-10-04T20:52:19;28.50;;;16.05;;
26582;SDS011;14230;45.382;10.998;2022-10-04T20:54:49;18.67;;;15.07;;
26582;SDS011;14230;45.382;10.998;2022-10-04T20:57:18;20.77;;;15.48;;
26582;SDS011;14230;45.382;10.998;2022-10-04T20:59:50;21.15;;;14.68;;
26582;SDS011;14230;45.382;10.998;2022-10-04T21:02:21;18.38;;;14.10;;
26582;SDS011;14230;45.382;10.998;2022-10-04T21:04:51;30.05;;;15.95;;
26582;SDS011;14230;45.382;10.998;2022-10-04T21:07:20;20.05;;;15.40;;
26582;SDS011;14230;45.382;10.998;2022-10-04T21:09:50;22.23;;;15.68;;
26582;SDS011;14230;45.382;10.998;2022-10-04T21:12:36;22.85;;;15.63;;
26582;SDS011;14230;45.382;10.998;2022-10-04T21:18:05;28.17;;;20.07;;
26582;SDS011;14230;45.382;10.998;2022-10-04T21:28:54;50.70;;;31.55;;
26582;SDS011;14230;45.382;10.998;2022-10-04T21:31:27;30.67;;;19.13;;
26582;SDS011;14230;45.382;10.998;2022-10-04T21:33:55;22.65;;;17.50;;
26582;SDS011;14230;45.382;10.998;2022-10-04T21:36:22;24.50;;;17.17;;
26582;SDS011;14230;45.382;10.998;2022-10-04T21:38:50;23.92;;;16.77;;
26582;SDS011;14230;45.382;10.998;2022-10-04T21:41:20;24.02;;;17.67;;
26582;SDS011;14230;45.382;10.998;2022-10-04T21:43:47;25.83;;;16.80;;
26582;SDS011;14230;45.382;10.998;2022-10-04T21:46:18;24.20;;;16.67;;
26582;SDS011;14230;45.382;10.998;2022-10-04T21:48:46;24.30;;;16.98;;
26582;SDS011;14230;45.382;10.998;2022-10-04T21:51:14;25.27;;;17.08;;
26582;SDS011;14230;45.382;10.998;2022-10-04T21:53:41;22.92;;;17.80;;
26582;SDS011;14230;45.382;10.998;2022-10-04T21:56:09;26.38;;;17.77;;
26582;SDS011;14230;45.382;10.998;2022-10-04T21:58:37;24.20;;;17.55;;
26582;SDS011;14230;45.382;10.998;2022-10-04T22:01:04;23.25;;;18.35;;
26582;SDS011;14230;45.382;10.998;2022-10-04T22:03:32;29.02;;;17.48;;
26582;SDS011;14230;45.382;10.998;2022-10-04T22:05:59;26.17;;;19.27;;
26582;SDS011;14230;45.382;10.998;2022-10-04T22:08:27;24.33;;;18.13;;
26582;SDS011;14230;45.382;10.998;2022-10-04T22:10:55;22.92;;;18.48;;
26582;SDS011;14230;45.382;10.998;2022-10-04T22:13:23;24.27;;;18.48;;
26582;SDS011;14230;45.382;10.998;2022-10-04T22:15:54;33.20;;;19.15;;
26582;SDS011;14230;45.382;10.998;2022-10-04T22:18:22;30.42;;;18.67;;
26582;SDS011;14230;45.382;10.998;2022-10-04T22:20:49;23.13;;;17.95;;
26582;SDS011;14230;45.382;10.998;2022-10-04T22:23:18;30.40;;;20.35;;
26582;SDS011;14230;45.382;10.998;2022-10-04T22:25:48;23.60;;;19.42;;
26582;SDS011;14230;45.382;10.998;2022-10-04T22:30:48;29.40;;;19.15;;
26582;SDS011;14230;45.382;10.998;2022-10-04T22:33:26;27.58;;;19.25;;
26582;SDS011;14230;45.382;10.998;2022-10-04T22:35:55;29.83;;;19.48;;
26582;SDS011;14230;45.382;10.998;2022-10-04T22:38:50;32.45;;;20.95;;
26582;SDS011;14230;45.382;10.998;2022-10-04T22:41:27;24.02;;;19.13;;
26582;SDS011;14230;45.382;10.998;2022-10-04T22:44:01;27.95;;;19.27;;
26582;SDS011;14230;45.382;10.998;2022-10-04T22:46:38;29.80;;;17.98;;
26582;SDS011;14230;45.382;10.998;2022-10-04T22:49:09;34.03;;;20.98;;
26582;SDS011;14230;45.382;10.998;2022-10-04T22:51:42;29.13;;;20.95;;
26582;SDS011;14230;45.382;10.998;2022-10-04T22:54:20;29.08;;;20.48;;
26582;SDS011;14230;45.382;10.998;2022-10-04T22:56:51;25.08;;;19.73;;
26582;SDS011;14230;45.382;10.998;2022-10-04T22:59:29;28.50;;;20.23;;
26582;SDS011;14230;45.382;10.998;2022-10-04T23:02:04;28.50;;;19.70;;
26582;SDS011;14230;45.382;10.998;2022-10-04T23:04:36;23.95;;;19.75;;
26582;SDS011;14230;45.382;10.998;2022-10-04T23:07:05;23.40;;;19.17;;
26582;SDS011;14230;45.382;10.998;2022-10-04T23:09:33;28.02;;;19.45;;
26582;SDS011;14230;45.382;10.998;2022-10-04T23:12:01;28.95;;;20.67;;
26582;SDS011;14230;45.382;10.998;2022-10-04T23:14:28;24.60;;;18.55;;
26582;SDS011;14230;45.382;10.998;2022-10-04T23:16:56;25.58;;;18.98;;
26582;SDS011;14230;45.382;10.998;2022-10-04T23:19:24;28.17;;;19.33;;
26582;SDS011;14230;45.382;10.998;2022-10-04T23:21:51;25.55;;;19.48;;
26582;SDS011;14230;45.382;10.998;2022-10-04T23:24:20;24.38;;;18.45;;
26582;SDS011;14230;45.382;10.998;2022-10-04T23:26:51;30.13;;;20.15;;
26582;SDS011;14230;45.382;10.998;2022-10-04T23:31:51;24.70;;;18.92;;
26582;SDS011;14230;45.382;10.998;2022-10-04T23:34:35;28.52;;;20.30;;
26582;SDS011;14230;45.382;10.998;2022-10-04T23:37:18;26.85;;;20.33;;
26582;SDS011;14230;45.382;10.998;2022-10-04T23:39:48;27.17;;;20.50;;
26582;SDS011;14230;45.382;10.998;2022-10-04T23:42:17;33.35;;;21.13;;
26582;SDS011;14230;45.382;10.998;2022-10-04T23:44:58;28.98;;;20.08;;
26582;SDS011;14230;45.382;10.998;2022-10-04T23:47:28;30.15;;;19.02;;
26582;SDS011;14230;45.382;10.998;2022-10-04T23:49:59;27.73;;;19.20;;
26582;SDS011;14230;45.382;10.998;2022-10-04T23:52:34;26.17;;;19.70;;
26582;SDS011;14230;45.382;10.998;2022-10-04T23:55:25;33.75;;;20.33;;
26582;SDS011;14230;45.382;10.998;2022-10-04T23:57:58;24.90;;;18.83;;
